Terminal Aerodrome Forecast
Issued by NWS

Home | Current Version | Previous Version | Text Only | Print | Product List | Glossary On
Versions: 1 2 3 4 5 6 7 8 9 10 11 12 13 14 15 16 17 18 19
000
FTUS43 KMQT 201137 AAA
TAFSAW
TAF AMD
KSAW 201137Z 2012/2112 21005KT 1/2SM FG BKN002
     FM201600 21004KT 1SM BR OVC003
     FM202200 20003KT 2SM -SHRA BR OVC008
     FM210100 00000KT 1 1/2SM -SHRA BR OVC008
     FM210400 00000KT 2SM -SHRA BR OVC003
     FM210600 18003KT 2SM BR OVC003
     FM210700 18003KT 1/2SM FG OVC003=

USA.gov is the U.S. government's official web portal to all federal, state and local government web resources and services.